Rhinelander, WI (54501)

10:53 AM CST on February 12, 2016 (GMT -0600)
Rhinelander CW5781 | | Change Station
CLOSE
Current Station
Personal Weather Station
Location: Rhinelander, WI
Elevation: 1520 ft
Nearby Weather Stations
Active Advisory: Wind Chill Advisory

Elev 1520 ft 45.64 °N, 89.39 °W | Updated 170 days ago

Overcast
Overcast
4 °F
Feels Like -16 °F
N
17
Wind Variable Wind from NNW
Gusts 23 mph

Today
High -- | Low -- °F
--% Chance of Precip.
Yesterday
High -- | Low -- °F
Precip. -- in
Pressure 30.08 in
Visibility 9.0 miles
Clouds Overcast 3300 ft
Windchill -16 °F
Dew Point -9 °F
Humidity 53%
Rainfall in
Snow Depth Not available.
7:04 AM 5:19 PM
Waxing Crescent, 22% visible
SPECI KRHI 121607Z AUTO 32016G27KT 9SM OVC033 M15/M22 A3008 RMK AO2 PK WND 34027/1606 T11501217
Pressure 30.08 in
Visibility 9.0 miles
Clouds Overcast 3300 ft
Windchill -16 °F
Dew Point -9 °F
Humidity 53%
Rainfall in
Snow Depth Not available.
7:04 AM 5:19 PM
Waxing Crescent, 22% visible
SPECI KRHI 121607Z AUTO 32016G27KT 9SM OVC033 M15/M22 A3008 RMK AO2 PK WND 34027/1606 T11501217

10-Day Weather Forecast

Almanac

Astronomy

Feb. 12, 2016 Rise Set
Actual Time
Civil Twilight
Nautical Twilight
Astronomical Twilight
Moon
Length of Visible Light
Length of Day
Tomorrow will be .
, % of the Moon is Illuminated

Today's Extremes

State Highs State Lows

Community

WunderPhotos

Upload Photos

1,892,354 photos uploaded!

WunderBlog® & News

Nearby

Air Quality

  Air Quality AQ Index Pollutant
Not available.

Snow Depth

Station Depth Elevation

Earthquake Activity

City Distance Mag. Time & Date
Minimum magnitude displayed is 2.5.

Coastal Water Temperatures

Place Temperature

Stations

Nearby Weather Stations

Station Location Temp. Windchill Dew Point Humidity Wind Precip. Elev Updated Type
                   

Watches & Warnings

Wind Chill Advisory
Issued: 3:11 AM CST Feb. 12, 2016 – National Weather Service

... Wind Chill Advisory in effect from 6 PM this evening to 9 am
CST Saturday...

The National Weather Service in Green Bay has issued a Wind Chill
Advisory... which is in effect from 6 PM this evening to 9 am CST
Saturday.

* Wind chills will drop to 25 to 30 below zero tonight and early
Saturday.

* The cold wind chills will cause frostbite on exposed skin in as
little as 20 minutes.

Precautionary/preparedness actions...

A Wind Chill Advisory means that cold air and the wind will
combine to generate low wind chills. Frostbite and hypothermia
can occur if precautions are not taken. Make sure you wear a hat
and gloves.